Relevés horaires Bierset (Belgique)


Relevés horaires à Bierset - Samedi 05 Déc. 2020
Heure UTC1 Température [°C] Vent [km/h] Hum. [%] Pres.4 [hPa] Visi. [Km] Nébu. [octa] Préc.5 [mm] Cond.
2m. Res. Ros. Dir.2 Vit. Moy. Raf.3
23:00 2.3 2.3 -0.8 ESE 3.7 5.6 7.4 80 1000.9(0.4/3h) 40 5/8 -- --
22:00 2.1 0.5 -0.8 ESE 5.6 5.6 13.0 81 1000.9(0.7/3h) 40 5/8 -- --
21:00 2.3 2.3 -0.9 ESE 3.7 5.6 13.0 79 1000.6(0.8/3h) 40 5/8 -- --
20:00 2.4 2.4 -0.7 ESE 3.7 3.7 13.0 80 1000.5(0.8/3h) 40 5/8 -- --
19:00 2.8 2.8 -0.9 ESE 3.7 5.6 9.3 77 1000.2(1.0/3h) 40 4/8 -- --
18:00 2.9 2.9 -1.0 SE 3.7 11.1 24.1 75 999.7(0.7/3h) 40 4/8 0/12h
--
17:00 3.3 3.3 -1.3 NNO 3.7 5.6 13.0 72 999.6(0.7/3h) 40 1/8 -- --
16:00 4.1 4.1 -1.1 SE 3.7 7.4 13.0 69 999(1.3/3h) 40 3/8 -- --
15:00 5.1 4 -0.9 SSE 5.6 11.1 24.1 65 998.9(0.8/3h) 40 7/8 -- --
14:00 4.9 2.7 -0.7 S 9.3 11.1 24.1 67 998.7(1.1/3h) 40 7/8 -- --
13:00 4.9 2.7 -0.3 S 9.3 9.3 22.2 69 997.6(0.0/3h) 40 4/8 -- --
12:00 4.2 1.9 -0.9 S 9.3 13.0 25.9 69 998.2(1.1/3h) 40 7/8 0/6h
--
11:00 4.5 2.2 -0.9 SSE 9.3 11.1 25.9 68 997.7(1.3/3h) 40 3/8 -- --
10:00 3.9 1.1 -0.3 S 11.1 11.1 25.9 74 997.7(2.4/3h) 40 1/8 -- --
09:00 3.1 1.7 0.3 S 5.6 11.1 18.5 82 997.1(2.9/3h) 40 1/8 -- --
08:00 2.4 -0.3 0.6 S 9.3 11.1 18.5 88 996.5(2.8/3h) 40 1/8 -- --
07:00 2.4 0.3 0.5 S 7.4 9.3 13.0 87 995.3(2.2/3h) 40 4/8 -- --
06:00 2.5 2.5 0.9 S 3.7 9.3 18.5 89 994.3(1.3/3h) 28 7/8 0/12h
--
05:00 2.5 1 0.6 S 5.6 5.6 14.8 87 993.6(1.5/3h) 28 7/8 -- --
04:00 2.3 2.3 0.8 SSE 1.9 3.7 11.1 90 993.1(1.2/3h) 28 7/8 -- --
03:00 2.0 2.0 0.1 S 3.7 9.3 18.5 87 993(1.6/3h) 28 7/8 -- --
02:00 2.0 -0.2 -0.1 SE 7.4 9.3 18.5 86 992.1(1.5/3h) 30 5/8 -- --
01:00 1.6 -0.7 -0.2 SE 7.4 7.4 13.0 88 991.9(1.3/3h) 30 7/8 -- --
00:00 2.1 0.5 -0.1 SSE 5.6 9.3 14.8 85 991.4(0.9/3h) 30 6/8 0/6h
0.6/24h
--

1 Coordinated Universal Time. Actuellement il est 00:00 locale et 22:00 UTC.

2 Le vent souffle depuis la direction indiquée vers la direction oposée.

3 Les rafales max. sont disponible 40 min après l'heure du relevé.

4 Pour les stations d'altitude (plus de 600m) le géopotentiel du niveau le plus proche de la pression obligatoire est indiqué.

5 Les stations disposant d'un diffuseur peuvent indiquer "trace". Cela signifie que des précipitations ont touchés le sol mais que la quantité est inférieure à 0.1 mm.

Récapitulatif de la journée
Température [°C] Vent [km/h] Ensoleillement4 [h] Precipitations totale5 [mm] Pression [Hpa]
Min1 Max.2 Moy.3 Max. Min Max.
0.9 5.3 8.4 25.9 0 h 0 min 0 991.4 1000.9

1 Température minimale relevée entre 18:00 UTC la veille et 18:00 UTC le jour donné.

2 Température maximale relevée entre 06:00 UTC le jour donné et 06:00 UTC le lendemain.

3 Vent moyen de la journée basé sur les relevés horaires.

4 Ensoleillement en heures relevé entre 06:00 UTC la veille et 06:00 UTC le jour donné.

5 Précipitations totales tombées entre 06:00 UTC la jour donné et 06:00 UTC le lendemain.

Graphiques horaires